sensor_id;sensor_type;location;lat;lon;timestamp;P1;durP1;ratioP1;P2;durP2;ratioP2
71202;SDS011;58929;47.490;19.090;2023-05-16T00:00:12;8.77;;;4.03;;
71202;SDS011;58929;47.490;19.090;2023-05-16T00:02:40;6.78;;;4.07;;
71202;SDS011;58929;47.490;19.090;2023-05-16T00:05:09;6.38;;;4.70;;
71202;SDS011;58929;47.490;19.090;2023-05-16T00:07:41;7.20;;;3.72;;
71202;SDS011;58929;47.490;19.090;2023-05-16T00:10:09;8.07;;;4.10;;
71202;SDS011;58929;47.490;19.090;2023-05-16T00:12:37;5.70;;;3.80;;
71202;SDS011;58929;47.490;19.090;2023-05-16T00:15:07;4.93;;;3.88;;
71202;SDS011;58929;47.490;19.090;2023-05-16T00:17:38;5.65;;;3.85;;
71202;SDS011;58929;47.490;19.090;2023-05-16T00:20:06;7.88;;;3.97;;
71202;SDS011;58929;47.490;19.090;2023-05-16T00:22:37;5.82;;;4.32;;
71202;SDS011;58929;47.490;19.090;2023-05-16T00:25:08;4.80;;;4.22;;
71202;SDS011;58929;47.490;19.090;2023-05-16T00:27:36;10.93;;;5.93;;
71202;SDS011;58929;47.490;19.090;2023-05-16T00:30:04;8.63;;;7.72;;
71202;SDS011;58929;47.490;19.090;2023-05-16T00:32:34;12.48;;;11.20;;
71202;SDS011;58929;47.490;19.090;2023-05-16T00:35:04;11.57;;;9.35;;
71202;SDS011;58929;47.490;19.090;2023-05-16T00:37:32;7.63;;;5.57;;
71202;SDS011;58929;47.490;19.090;2023-05-16T00:40:01;5.85;;;3.60;;
71202;SDS011;58929;47.490;19.090;2023-05-16T00:42:30;3.50;;;2.60;;
71202;SDS011;58929;47.490;19.090;2023-05-16T00:44:59;4.22;;;2.38;;
71202;SDS011;58929;47.490;19.090;2023-05-16T00:47:27;3.65;;;2.50;;
71202;SDS011;58929;47.490;19.090;2023-05-16T00:49:56;4.47;;;2.55;;
71202;SDS011;58929;47.490;19.090;2023-05-16T00:52:27;3.45;;;2.50;;
71202;SDS011;58929;47.490;19.090;2023-05-16T00:54:55;6.90;;;2.75;;
71202;SDS011;58929;47.490;19.090;2023-05-16T00:57:23;7.40;;;2.30;;
71202;SDS011;58929;47.490;19.090;2023-05-16T00:59:51;3.35;;;1.95;;
71202;SDS011;58929;47.490;19.090;2023-05-16T01:02:20;3.88;;;2.08;;
71202;SDS011;58929;47.490;19.090;2023-05-16T01:04:48;5.78;;;2.00;;
71202;SDS011;58929;47.490;19.090;2023-05-16T01:07:18;2.70;;;1.92;;
71202;SDS011;58929;47.490;19.090;2023-05-16T01:09:47;2.83;;;2.22;;
71202;SDS011;58929;47.490;19.090;2023-05-16T01:12:18;4.10;;;2.08;;
71202;SDS011;58929;47.490;19.090;2023-05-16T01:14:51;3.42;;;1.85;;
71202;SDS011;58929;47.490;19.090;2023-05-16T01:17:22;5.00;;;1.85;;
71202;SDS011;58929;47.490;19.090;2023-05-16T01:20:02;2.45;;;2.00;;
71202;SDS011;58929;47.490;19.090;2023-05-16T01:22:37;2.38;;;2.03;;
71202;SDS011;58929;47.490;19.090;2023-05-16T01:25:25;4.47;;;2.05;;
71202;SDS011;58929;47.490;19.090;2023-05-16T01:27:59;4.40;;;2.72;;
71202;SDS011;58929;47.490;19.090;2023-05-16T01:30:31;7.25;;;2.10;;
71202;SDS011;58929;47.490;19.090;2023-05-16T01:33:07;4.00;;;2.00;;
71202;SDS011;58929;47.490;19.090;2023-05-16T01:35:36;7.03;;;2.92;;
71202;SDS011;58929;47.490;19.090;2023-05-16T01:38:08;4.90;;;2.40;;
71202;SDS011;58929;47.490;19.090;2023-05-16T01:40:40;4.25;;;2.70;;
71202;SDS011;58929;47.490;19.090;2023-05-16T01:43:14;5.93;;;2.80;;
71202;SDS011;58929;47.490;19.090;2023-05-16T01:45:46;5.57;;;2.22;;
71202;SDS011;58929;47.490;19.090;2023-05-16T01:48:15;8.68;;;3.13;;
71202;SDS011;58929;47.490;19.090;2023-05-16T01:50:46;3.90;;;2.60;;
71202;SDS011;58929;47.490;19.090;2023-05-16T01:53:14;11.43;;;3.22;;
71202;SDS011;58929;47.490;19.090;2023-05-16T01:55:44;3.50;;;3.08;;
71202;SDS011;58929;47.490;19.090;2023-05-16T01:58:15;4.05;;;3.08;;
71202;SDS011;58929;47.490;19.090;2023-05-16T02:00:43;3.75;;;2.60;;
71202;SDS011;58929;47.490;19.090;2023-05-16T02:03:12;3.10;;;2.53;;
71202;SDS011;58929;47.490;19.090;2023-05-16T02:05:40;2.92;;;2.60;;
71202;SDS011;58929;47.490;19.090;2023-05-16T02:08:10;4.15;;;2.55;;
71202;SDS011;58929;47.490;19.090;2023-05-16T02:10:41;5.07;;;2.47;;
71202;SDS011;58929;47.490;19.090;2023-05-16T02:13:09;8.50;;;2.70;;
71202;SDS011;58929;47.490;19.090;2023-05-16T02:15:38;4.32;;;2.80;;
71202;SDS011;58929;47.490;19.090;2023-05-16T02:18:07;10.43;;;3.30;;
71202;SDS011;58929;47.490;19.090;2023-05-16T02:20:36;5.30;;;3.00;;
71202;SDS011;58929;47.490;19.090;2023-05-16T02:23:05;3.38;;;2.53;;
71202;SDS011;58929;47.490;19.090;2023-05-16T02:25:35;2.88;;;2.40;;
71202;SDS011;58929;47.490;19.090;2023-05-16T02:28:03;5.97;;;3.00;;
71202;SDS011;58929;47.490;19.090;2023-05-16T02:30:32;4.57;;;3.38;;
71202;SDS011;58929;47.490;19.090;2023-05-16T02:33:02;8.38;;;3.40;;
71202;SDS011;58929;47.490;19.090;2023-05-16T02:35:30;3.80;;;3.00;;
71202;SDS011;58929;47.490;19.090;2023-05-16T02:37:59;5.78;;;3.38;;
71202;SDS011;58929;47.490;19.090;2023-05-16T02:40:27;6.40;;;3.35;;
71202;SDS011;58929;47.490;19.090;2023-05-16T02:42:55;3.60;;;3.20;;
71202;SDS011;58929;47.490;19.090;2023-05-16T02:45:23;4.53;;;2.70;;
71202;SDS011;58929;47.490;19.090;2023-05-16T02:47:52;9.40;;;3.05;;
71202;SDS011;58929;47.490;19.090;2023-05-16T02:50:22;7.05;;;2.90;;
71202;SDS011;58929;47.490;19.090;2023-05-16T02:52:50;4.57;;;2.67;;
71202;SDS011;58929;47.490;19.090;2023-05-16T02:55:18;5.85;;;2.60;;
71202;SDS011;58929;47.490;19.090;2023-05-16T02:58:01;2.80;;;2.50;;
71202;SDS011;58929;47.490;19.090;2023-05-16T03:00:29;4.28;;;2.60;;
71202;SDS011;58929;47.490;19.090;2023-05-16T03:02:57;3.28;;;2.33;;
71202;SDS011;58929;47.490;19.090;2023-05-16T03:05:27;3.45;;;2.70;;
71202;SDS011;58929;47.490;19.090;2023-05-16T03:07:55;2.65;;;2.42;;
71202;SDS011;58929;47.490;19.090;2023-05-16T03:10:23;4.15;;;2.75;;
71202;SDS011;58929;47.490;19.090;2023-05-16T03:12:51;4.40;;;2.53;;
71202;SDS011;58929;47.490;19.090;2023-05-16T03:15:20;4.53;;;2.20;;
71202;SDS011;58929;47.490;19.090;2023-05-16T03:17:48;3.95;;;2.60;;
71202;SDS011;58929;47.490;19.090;2023-05-16T03:20:17;3.17;;;2.63;;
71202;SDS011;58929;47.490;19.090;2023-05-16T03:22:46;2.70;;;2.25;;
71202;SDS011;58929;47.490;19.090;2023-05-16T03:25:14;2.58;;;2.38;;
71202;SDS011;58929;47.490;19.090;2023-05-16T03:27:42;2.83;;;2.53;;
71202;SDS011;58929;47.490;19.090;2023-05-16T03:30:10;4.40;;;2.00;;
71202;SDS011;58929;47.490;19.090;2023-05-16T03:32:39;2.78;;;2.35;;
71202;SDS011;58929;47.490;19.090;2023-05-16T03:35:08;5.10;;;2.60;;
71202;SDS011;58929;47.490;19.090;2023-05-16T03:37:37;3.95;;;2.40;;
71202;SDS011;58929;47.490;19.090;2023-05-16T03:40:08;2.35;;;2.15;;
71202;SDS011;58929;47.490;19.090;2023-05-16T03:42:36;3.70;;;2.45;;
71202;SDS011;58929;47.490;19.090;2023-05-16T03:45:05;3.67;;;2.75;;
71202;SDS011;58929;47.490;19.090;2023-05-16T03:47:33;3.30;;;2.70;;
71202;SDS011;58929;47.490;19.090;2023-05-16T03:50:01;2.55;;;2.30;;
71202;SDS011;58929;47.490;19.090;2023-05-16T03:52:29;4.50;;;2.35;;
71202;SDS011;58929;47.490;19.090;2023-05-16T03:54:58;3.92;;;2.50;;
71202;SDS011;58929;47.490;19.090;2023-05-16T03:57:29;4.78;;;2.38;;
71202;SDS011;58929;47.490;19.090;2023-05-16T03:59:57;4.45;;;1.83;;
71202;SDS011;58929;47.490;19.090;2023-05-16T04:02:25;2.50;;;2.30;;
71202;SDS011;58929;47.490;19.090;2023-05-16T04:04:54;6.63;;;2.88;;
71202;SDS011;58929;47.490;19.090;2023-05-16T04:07:22;2.13;;;1.90;;
71202;SDS011;58929;47.490;19.090;2023-05-16T04:09:50;2.10;;;1.80;;
71202;SDS011;58929;47.490;19.090;2023-05-16T04:12:20;6.43;;;2.47;;
71202;SDS011;58929;47.490;19.090;2023-05-16T04:14:49;2.15;;;1.95;;
71202;SDS011;58929;47.490;19.090;2023-05-16T04:17:17;4.30;;;2.65;;
71202;SDS011;58929;47.490;19.090;2023-05-16T04:19:45;2.88;;;2.60;;
71202;SDS011;58929;47.490;19.090;2023-05-16T04:22:13;2.83;;;1.98;;
71202;SDS011;58929;47.490;19.090;2023-05-16T04:24:41;2.80;;;2.28;;
71202;SDS011;58929;47.490;19.090;2023-05-16T04:27:09;3.90;;;2.60;;
71202;SDS011;58929;47.490;19.090;2023-05-16T04:29:38;6.20;;;4.75;;
71202;SDS011;58929;47.490;19.090;2023-05-16T04:32:08;3.25;;;2.40;;
71202;SDS011;58929;47.490;19.090;2023-05-16T04:34:36;6.70;;;2.70;;
71202;SDS011;58929;47.490;19.090;2023-05-16T04:37:06;5.10;;;3.20;;
71202;SDS011;58929;47.490;19.090;2023-05-16T04:39:35;4.65;;;2.30;;
71202;SDS011;58929;47.490;19.090;2023-05-16T04:42:03;3.33;;;2.50;;
71202;SDS011;58929;47.490;19.090;2023-05-16T04:44:31;3.25;;;2.10;;
71202;SDS011;58929;47.490;19.090;2023-05-16T04:47:00;3.03;;;2.50;;
71202;SDS011;58929;47.490;19.090;2023-05-16T04:49:29;3.63;;;2.10;;
71202;SDS011;58929;47.490;19.090;2023-05-16T04:51:57;3.63;;;2.47;;
71202;SDS011;58929;47.490;19.090;2023-05-16T04:54:25;4.40;;;2.00;;
71202;SDS011;58929;47.490;19.090;2023-05-16T04:56:53;4.13;;;2.00;;
71202;SDS011;58929;47.490;19.090;2023-05-16T04:59:22;5.07;;;2.72;;
71202;SDS011;58929;47.490;19.090;2023-05-16T05:01:50;6.13;;;2.88;;
71202;SDS011;58929;47.490;19.090;2023-05-16T05:04:18;5.13;;;3.00;;
71202;SDS011;58929;47.490;19.090;2023-05-16T05:06:48;6.95;;;3.50;;
71202;SDS011;58929;47.490;19.090;2023-05-16T05:09:16;3.03;;;2.55;;
71202;SDS011;58929;47.490;19.090;2023-05-16T05:11:44;3.83;;;2.90;;
71202;SDS011;58929;47.490;19.090;2023-05-16T05:14:12;10.35;;;2.85;;
71202;SDS011;58929;47.490;19.090;2023-05-16T05:16:40;2.38;;;2.17;;
71202;SDS011;58929;47.490;19.090;2023-05-16T05:19:07;5.80;;;2.88;;
71202;SDS011;58929;47.490;19.090;2023-05-16T05:21:35;3.80;;;2.67;;
71202;SDS011;58929;47.490;19.090;2023-05-16T05:24:05;5.50;;;3.00;;
71202;SDS011;58929;47.490;19.090;2023-05-16T05:26:33;3.95;;;2.40;;
71202;SDS011;58929;47.490;19.090;2023-05-16T05:29:01;5.28;;;3.53;;
71202;SDS011;58929;47.490;19.090;2023-05-16T05:31:31;7.90;;;4.30;;
71202;SDS011;58929;47.490;19.090;2023-05-16T05:34:01;5.15;;;3.25;;
71202;SDS011;58929;47.490;19.090;2023-05-16T05:36:29;6.32;;;2.92;;
71202;SDS011;58929;47.490;19.090;2023-05-16T05:38:57;4.55;;;2.80;;
71202;SDS011;58929;47.490;19.090;2023-05-16T05:41:26;3.58;;;2.70;;
71202;SDS011;58929;47.490;19.090;2023-05-16T05:43:55;6.95;;;2.85;;
71202;SDS011;58929;47.490;19.090;2023-05-16T05:46:23;4.35;;;3.17;;
71202;SDS011;58929;47.490;19.090;2023-05-16T05:48:51;5.55;;;2.95;;
71202;SDS011;58929;47.490;19.090;2023-05-16T05:51:19;7.97;;;2.70;;
71202;SDS011;58929;47.490;19.090;2023-05-16T05:53:47;6.47;;;2.47;;
71202;SDS011;58929;47.490;19.090;2023-05-16T05:56:15;3.08;;;2.55;;
71202;SDS011;58929;47.490;19.090;2023-05-16T05:58:45;4.57;;;2.72;;
71202;SDS011;58929;47.490;19.090;2023-05-16T06:01:13;4.45;;;2.53;;
71202;SDS011;58929;47.490;19.090;2023-05-16T06:03:41;4.55;;;2.70;;
71202;SDS011;58929;47.490;19.090;2023-05-16T06:06:09;6.57;;;2.88;;
71202;SDS011;58929;47.490;19.090;2023-05-16T06:08:37;7.35;;;3.15;;
71202;SDS011;58929;47.490;19.090;2023-05-16T06:11:06;9.85;;;2.92;;
71202;SDS011;58929;47.490;19.090;2023-05-16T06:13:34;5.18;;;2.35;;
71202;SDS011;58929;47.490;19.090;2023-05-16T06:16:03;5.80;;;2.45;;
71202;SDS011;58929;47.490;19.090;2023-05-16T06:18:34;7.65;;;3.08;;
71202;SDS011;58929;47.490;19.090;2023-05-16T06:21:03;6.07;;;2.58;;
71202;SDS011;58929;47.490;19.090;2023-05-16T06:23:33;8.95;;;3.15;;
71202;SDS011;58929;47.490;19.090;2023-05-16T06:26:01;7.82;;;3.35;;
71202;SDS011;58929;47.490;19.090;2023-05-16T06:28:29;11.30;;;2.90;;
71202;SDS011;58929;47.490;19.090;2023-05-16T06:30:57;4.63;;;2.72;;
71202;SDS011;58929;47.490;19.090;2023-05-16T06:33:29;10.88;;;3.42;;
71202;SDS011;58929;47.490;19.090;2023-05-16T06:35:57;4.72;;;2.95;;
71202;SDS011;58929;47.490;19.090;2023-05-16T06:38:24;5.15;;;2.80;;
71202;SDS011;58929;47.490;19.090;2023-05-16T06:40:52;7.45;;;3.95;;
71202;SDS011;58929;47.490;19.090;2023-05-16T06:43:21;11.50;;;4.30;;
71202;SDS011;58929;47.490;19.090;2023-05-16T06:45:49;13.93;;;3.60;;
71202;SDS011;58929;47.490;19.090;2023-05-16T06:48:17;7.82;;;3.10;;
71202;SDS011;58929;47.490;19.090;2023-05-16T06:50:47;5.60;;;3.10;;
71202;SDS011;58929;47.490;19.090;2023-05-16T06:53:16;5.30;;;2.78;;
71202;SDS011;58929;47.490;19.090;2023-05-16T06:55:45;8.52;;;4.93;;
71202;SDS011;58929;47.490;19.090;2023-05-16T06:58:14;7.93;;;3.15;;
71202;SDS011;58929;47.490;19.090;2023-05-16T07:00:42;8.50;;;3.00;;
71202;SDS011;58929;47.490;19.090;2023-05-16T07:03:11;6.47;;;3.10;;
71202;SDS011;58929;47.490;19.090;2023-05-16T07:05:39;6.78;;;2.75;;
71202;SDS011;58929;47.490;19.090;2023-05-16T07:08:09;3.75;;;2.92;;
71202;SDS011;58929;47.490;19.090;2023-05-16T07:10:37;4.32;;;2.83;;
71202;SDS011;58929;47.490;19.090;2023-05-16T07:13:05;4.20;;;2.85;;
71202;SDS011;58929;47.490;19.090;2023-05-16T07:15:33;9.48;;;3.53;;
71202;SDS011;58929;47.490;19.090;2023-05-16T07:18:03;13.30;;;3.70;;
71202;SDS011;58929;47.490;19.090;2023-05-16T07:20:31;6.22;;;3.10;;
71202;SDS011;58929;47.490;19.090;2023-05-16T07:22:59;5.55;;;3.40;;
71202;SDS011;58929;47.490;19.090;2023-05-16T07:25:28;4.90;;;3.80;;
71202;SDS011;58929;47.490;19.090;2023-05-16T07:27:59;5.88;;;3.92;;
71202;SDS011;58929;47.490;19.090;2023-05-16T07:30:27;12.38;;;3.40;;
71202;SDS011;58929;47.490;19.090;2023-05-16T07:32:56;4.72;;;3.58;;
71202;SDS011;58929;47.490;19.090;2023-05-16T07:35:24;9.40;;;4.57;;
71202;SDS011;58929;47.490;19.090;2023-05-16T07:37:52;9.25;;;4.38;;
71202;SDS011;58929;47.490;19.090;2023-05-16T07:40:21;7.32;;;5.47;;
71202;SDS011;58929;47.490;19.090;2023-05-16T07:42:55;5.80;;;5.00;;
71202;SDS011;58929;47.490;19.090;2023-05-16T07:45:23;6.10;;;4.82;;
71202;SDS011;58929;47.490;19.090;2023-05-16T07:47:52;6.22;;;4.80;;
71202;SDS011;58929;47.490;19.090;2023-05-16T07:50:20;5.75;;;5.03;;
71202;SDS011;58929;47.490;19.090;2023-05-16T07:52:48;5.63;;;4.45;;
71202;SDS011;58929;47.490;19.090;2023-05-16T07:55:16;8.23;;;5.30;;
71202;SDS011;58929;47.490;19.090;2023-05-16T07:57:44;11.02;;;4.93;;
71202;SDS011;58929;47.490;19.090;2023-05-16T08:00:14;9.50;;;5.70;;
71202;SDS011;58929;47.490;19.090;2023-05-16T08:02:42;7.55;;;4.95;;
71202;SDS011;58929;47.490;19.090;2023-05-16T08:05:11;7.80;;;5.38;;
71202;SDS011;58929;47.490;19.090;2023-05-16T08:07:39;8.20;;;5.80;;
71202;SDS011;58929;47.490;19.090;2023-05-16T08:10:09;8.00;;;5.80;;
71202;SDS011;58929;47.490;19.090;2023-05-16T08:12:39;5.88;;;5.00;;
71202;SDS011;58929;47.490;19.090;2023-05-16T08:15:07;11.90;;;6.40;;
71202;SDS011;58929;47.490;19.090;2023-05-16T08:17:38;7.53;;;6.40;;
71202;SDS011;58929;47.490;19.090;2023-05-16T08:20:06;11.50;;;6.70;;
71202;SDS011;58929;47.490;19.090;2023-05-16T08:22:35;7.45;;;6.35;;
71202;SDS011;58929;47.490;19.090;2023-05-16T08:25:05;11.57;;;7.40;;
71202;SDS011;58929;47.490;19.090;2023-05-16T08:27:34;11.18;;;7.90;;
71202;SDS011;58929;47.490;19.090;2023-05-16T08:30:09;10.55;;;6.80;;
71202;SDS011;58929;47.490;19.090;2023-05-16T08:32:40;13.38;;;7.22;;
71202;SDS011;58929;47.490;19.090;2023-05-16T08:35:08;10.23;;;7.45;;
71202;SDS011;58929;47.490;19.090;2023-05-16T08:37:38;12.18;;;7.60;;
71202;SDS011;58929;47.490;19.090;2023-05-16T08:40:07;23.48;;;9.60;;
71202;SDS011;58929;47.490;19.090;2023-05-16T08:42:36;13.60;;;8.23;;
71202;SDS011;58929;47.490;19.090;2023-05-16T08:45:05;12.55;;;8.23;;
71202;SDS011;58929;47.490;19.090;2023-05-16T08:47:33;14.55;;;9.05;;
71202;SDS011;58929;47.490;19.090;2023-05-16T08:50:05;8.55;;;7.18;;
71202;SDS011;58929;47.490;19.090;2023-05-16T08:52:36;8.50;;;6.82;;
71202;SDS011;58929;47.490;19.090;2023-05-16T08:55:06;7.78;;;6.35;;
71202;SDS011;58929;47.490;19.090;2023-05-16T08:57:38;6.18;;;5.03;;
71202;SDS011;58929;47.490;19.090;2023-05-16T09:00:08;6.50;;;5.53;;
71202;SDS011;58929;47.490;19.090;2023-05-16T09:02:38;7.47;;;4.75;;
71202;SDS011;58929;47.490;19.090;2023-05-16T09:05:10;5.93;;;4.78;;
71202;SDS011;58929;47.490;19.090;2023-05-16T09:07:38;8.00;;;5.20;;
71202;SDS011;58929;47.490;19.090;2023-05-16T09:10:06;5.70;;;4.60;;
71202;SDS011;58929;47.490;19.090;2023-05-16T09:12:35;9.05;;;4.97;;
71202;SDS011;58929;47.490;19.090;2023-05-16T09:15:05;5.78;;;4.25;;
71202;SDS011;58929;47.490;19.090;2023-05-16T09:17:33;8.93;;;4.35;;
71202;SDS011;58929;47.490;19.090;2023-05-16T09:20:09;5.85;;;4.32;;
71202;SDS011;58929;47.490;19.090;2023-05-16T09:22:37;5.40;;;4.07;;
71202;SDS011;58929;47.490;19.090;2023-05-16T09:25:06;5.07;;;3.88;;
71202;SDS011;58929;47.490;19.090;2023-05-16T09:27:54;6.72;;;4.25;;
71202;SDS011;58929;47.490;19.090;2023-05-16T09:30:26;5.70;;;4.63;;
71202;SDS011;58929;47.490;19.090;2023-05-16T09:32:54;4.95;;;3.90;;
71202;SDS011;58929;47.490;19.090;2023-05-16T09:35:25;4.05;;;3.58;;
71202;SDS011;58929;47.490;19.090;2023-05-16T09:38:12;8.52;;;4.40;;
71202;SDS011;58929;47.490;19.090;2023-05-16T09:40:40;5.35;;;3.75;;
71202;SDS011;58929;47.490;19.090;2023-05-16T09:43:09;6.47;;;4.50;;
71202;SDS011;58929;47.490;19.090;2023-05-16T09:45:39;6.80;;;4.40;;
71202;SDS011;58929;47.490;19.090;2023-05-16T09:48:12;5.25;;;4.65;;
71202;SDS011;58929;47.490;19.090;2023-05-16T09:50:45;5.03;;;4.28;;
71202;SDS011;58929;47.490;19.090;2023-05-16T09:53:14;6.60;;;4.50;;
71202;SDS011;58929;47.490;19.090;2023-05-16T09:55:42;6.10;;;4.40;;
71202;SDS011;58929;47.490;19.090;2023-05-16T09:58:10;7.65;;;4.65;;
71202;SDS011;58929;47.490;19.090;2023-05-16T10:00:38;6.63;;;4.30;;
71202;SDS011;58929;47.490;19.090;2023-05-16T10:03:07;5.90;;;4.97;;
71202;SDS011;58929;47.490;19.090;2023-05-16T10:05:42;12.43;;;7.30;;
71202;SDS011;58929;47.490;19.090;2023-05-16T10:08:11;9.65;;;7.70;;
71202;SDS011;58929;47.490;19.090;2023-05-16T10:10:39;5.82;;;5.15;;
71202;SDS011;58929;47.490;19.090;2023-05-16T10:13:13;9.75;;;5.57;;
71202;SDS011;58929;47.490;19.090;2023-05-16T10:15:42;12.13;;;6.18;;
71202;SDS011;58929;47.490;19.090;2023-05-16T10:18:10;9.70;;;6.15;;
71202;SDS011;58929;47.490;19.090;2023-05-16T10:23:09;8.27;;;6.18;;
71202;SDS011;58929;47.490;19.090;2023-05-16T10:25:39;7.10;;;6.35;;
71202;SDS011;58929;47.490;19.090;2023-05-16T10:28:07;8.05;;;6.35;;
71202;SDS011;58929;47.490;19.090;2023-05-16T10:30:36;10.57;;;6.53;;
71202;SDS011;58929;47.490;19.090;2023-05-16T10:33:07;10.23;;;6.05;;
71202;SDS011;58929;47.490;19.090;2023-05-16T10:35:35;8.27;;;6.50;;
71202;SDS011;58929;47.490;19.090;2023-05-16T10:38:04;8.18;;;6.35;;
71202;SDS011;58929;47.490;19.090;2023-05-16T10:40:35;7.40;;;6.03;;
71202;SDS011;58929;47.490;19.090;2023-05-16T10:43:05;8.07;;;5.20;;
71202;SDS011;58929;47.490;19.090;2023-05-16T10:45:34;10.93;;;7.40;;
71202;SDS011;58929;47.490;19.090;2023-05-16T10:48:03;9.60;;;7.38;;
71202;SDS011;58929;47.490;19.090;2023-05-16T10:50:33;9.07;;;5.50;;
71202;SDS011;58929;47.490;19.090;2023-05-16T10:53:17;6.05;;;5.45;;
71202;SDS011;58929;47.490;19.090;2023-05-16T10:56:04;9.52;;;6.90;;
71202;SDS011;58929;47.490;19.090;2023-05-16T10:58:39;32.33;;;21.30;;
71202;SDS011;58929;47.490;19.090;2023-05-16T11:01:14;14.65;;;9.13;;
71202;SDS011;58929;47.490;19.090;2023-05-16T11:06:29;5.05;;;4.55;;
71202;SDS011;58929;47.490;19.090;2023-05-16T11:09:05;6.40;;;4.70;;
71202;SDS011;58929;47.490;19.090;2023-05-16T11:11:41;6.00;;;5.03;;
71202;SDS011;58929;47.490;19.090;2023-05-16T11:14:22;6.93;;;4.35;;
71202;SDS011;58929;47.490;19.090;2023-05-16T11:16:51;8.75;;;5.43;;
71202;SDS011;58929;47.490;19.090;2023-05-16T11:19:30;12.10;;;5.05;;
71202;SDS011;58929;47.490;19.090;2023-05-16T11:22:08;8.70;;;4.80;;
71202;SDS011;58929;47.490;19.090;2023-05-16T11:24:37;7.97;;;5.13;;
71202;SDS011;58929;47.490;19.090;2023-05-16T11:27:07;8.35;;;4.90;;
71202;SDS011;58929;47.490;19.090;2023-05-16T11:29:37;9.10;;;4.75;;
71202;SDS011;58929;47.490;19.090;2023-05-16T11:32:05;8.63;;;4.85;;
71202;SDS011;58929;47.490;19.090;2023-05-16T11:34:34;5.13;;;4.13;;
71202;SDS011;58929;47.490;19.090;2023-05-16T11:37:05;7.10;;;5.07;;
71202;SDS011;58929;47.490;19.090;2023-05-16T11:39:33;7.97;;;5.65;;
71202;SDS011;58929;47.490;19.090;2023-05-16T11:42:01;7.80;;;4.97;;
71202;SDS011;58929;47.490;19.090;2023-05-16T11:44:31;10.90;;;5.40;;
71202;SDS011;58929;47.490;19.090;2023-05-16T11:46:59;7.75;;;5.00;;
71202;SDS011;58929;47.490;19.090;2023-05-16T11:49:28;10.65;;;5.78;;
71202;SDS011;58929;47.490;19.090;2023-05-16T11:51:56;8.25;;;5.57;;
71202;SDS011;58929;47.490;19.090;2023-05-16T11:54:24;9.68;;;5.60;;
71202;SDS011;58929;47.490;19.090;2023-05-16T11:56:52;8.43;;;4.82;;
71202;SDS011;58929;47.490;19.090;2023-05-16T11:59:21;7.88;;;6.15;;
71202;SDS011;58929;47.490;19.090;2023-05-16T12:01:53;7.82;;;6.10;;
71202;SDS011;58929;47.490;19.090;2023-05-16T12:04:22;11.18;;;6.40;;
71202;SDS011;58929;47.490;19.090;2023-05-16T12:06:58;10.48;;;6.35;;
71202;SDS011;58929;47.490;19.090;2023-05-16T12:09:27;11.02;;;5.82;;
71202;SDS011;58929;47.490;19.090;2023-05-16T12:11:55;7.38;;;5.20;;
71202;SDS011;58929;47.490;19.090;2023-05-16T12:14:24;7.90;;;5.45;;
71202;SDS011;58929;47.490;19.090;2023-05-16T12:31:56;9.13;;;6.18;;
71202;SDS011;58929;47.490;19.090;2023-05-16T12:42:03;9.70;;;5.30;;
71202;SDS011;58929;47.490;19.090;2023-05-16T12:44:31;9.00;;;4.93;;
71202;SDS011;58929;47.490;19.090;2023-05-16T12:47:01;10.70;;;5.00;;
71202;SDS011;58929;47.490;19.090;2023-05-16T12:49:31;7.60;;;5.07;;
71202;SDS011;58929;47.490;19.090;2023-05-16T12:51:59;11.55;;;5.15;;
71202;SDS011;58929;47.490;19.090;2023-05-16T12:54:31;10.55;;;4.97;;
71202;SDS011;58929;47.490;19.090;2023-05-16T12:56:59;12.73;;;5.57;;
71202;SDS011;58929;47.490;19.090;2023-05-16T12:59:27;9.93;;;4.95;;
71202;SDS011;58929;47.490;19.090;2023-05-16T13:01:57;11.10;;;4.78;;
71202;SDS011;58929;47.490;19.090;2023-05-16T13:04:26;10.50;;;5.32;;
71202;SDS011;58929;47.490;19.090;2023-05-16T13:06:56;10.15;;;5.50;;
71202;SDS011;58929;47.490;19.090;2023-05-16T13:09:25;10.30;;;4.82;;
71202;SDS011;58929;47.490;19.090;2023-05-16T13:11:58;9.98;;;5.82;;
71202;SDS011;58929;47.490;19.090;2023-05-16T13:14:26;11.48;;;5.22;;
71202;SDS011;58929;47.490;19.090;2023-05-16T13:16:54;15.38;;;5.25;;
71202;SDS011;58929;47.490;19.090;2023-05-16T13:19:22;13.15;;;6.13;;
71202;SDS011;58929;47.490;19.090;2023-05-16T13:21:52;12.20;;;4.82;;
71202;SDS011;58929;47.490;19.090;2023-05-16T13:24:21;12.95;;;5.70;;
71202;SDS011;58929;47.490;19.090;2023-05-16T13:26:49;13.68;;;5.40;;
71202;SDS011;58929;47.490;19.090;2023-05-16T13:29:17;10.23;;;5.28;;
71202;SDS011;58929;47.490;19.090;2023-05-16T13:31:45;10.63;;;5.70;;
71202;SDS011;58929;47.490;19.090;2023-05-16T13:34:14;8.38;;;5.30;;
71202;SDS011;58929;47.490;19.090;2023-05-16T13:36:42;9.52;;;5.43;;
71202;SDS011;58929;47.490;19.090;2023-05-16T13:39:16;12.13;;;5.30;;
71202;SDS011;58929;47.490;19.090;2023-05-16T13:41:44;9.10;;;5.35;;
71202;SDS011;58929;47.490;19.090;2023-05-16T13:44:15;8.90;;;5.18;;
71202;SDS011;58929;47.490;19.090;2023-05-16T13:46:43;14.85;;;6.05;;
71202;SDS011;58929;47.490;19.090;2023-05-16T13:49:11;19.42;;;6.20;;
71202;SDS011;58929;47.490;19.090;2023-05-16T13:51:42;14.93;;;5.28;;
71202;SDS011;58929;47.490;19.090;2023-05-16T13:54:10;14.98;;;6.32;;
71202;SDS011;58929;47.490;19.090;2023-05-16T13:56:40;11.63;;;5.78;;
71202;SDS011;58929;47.490;19.090;2023-05-16T13:59:08;11.57;;;6.38;;
71202;SDS011;58929;47.490;19.090;2023-05-16T14:01:49;16.85;;;6.82;;
71202;SDS011;58929;47.490;19.090;2023-05-16T14:04:17;11.90;;;6.15;;
71202;SDS011;58929;47.490;19.090;2023-05-16T14:06:45;11.82;;;5.95;;
71202;SDS011;58929;47.490;19.090;2023-05-16T14:09:14;14.57;;;5.60;;
71202;SDS011;58929;47.490;19.090;2023-05-16T14:11:44;13.38;;;5.70;;
71202;SDS011;58929;47.490;19.090;2023-05-16T14:14:12;12.98;;;6.15;;
71202;SDS011;58929;47.490;19.090;2023-05-16T14:16:40;10.98;;;5.88;;
71202;SDS011;58929;47.490;19.090;2023-05-16T14:19:12;10.80;;;5.38;;
71202;SDS011;58929;47.490;19.090;2023-05-16T14:21:43;10.02;;;5.75;;
71202;SDS011;58929;47.490;19.090;2023-05-16T14:24:11;12.82;;;6.93;;
71202;SDS011;58929;47.490;19.090;2023-05-16T14:26:39;14.75;;;5.90;;
71202;SDS011;58929;47.490;19.090;2023-05-16T14:29:09;10.40;;;5.38;;
71202;SDS011;58929;47.490;19.090;2023-05-16T14:31:38;15.18;;;6.05;;
71202;SDS011;58929;47.490;19.090;2023-05-16T14:34:07;13.35;;;5.43;;
71202;SDS011;58929;47.490;19.090;2023-05-16T14:36:35;11.48;;;6.15;;
71202;SDS011;58929;47.490;19.090;2023-05-16T14:39:03;14.20;;;6.22;;
71202;SDS011;58929;47.490;19.090;2023-05-16T14:41:31;12.88;;;5.95;;
71202;SDS011;58929;47.490;19.090;2023-05-16T14:43:59;11.90;;;5.32;;
71202;SDS011;58929;47.490;19.090;2023-05-16T14:46:29;11.73;;;7.47;;
71202;SDS011;58929;47.490;19.090;2023-05-16T14:48:57;15.73;;;5.60;;
71202;SDS011;58929;47.490;19.090;2023-05-16T14:51:25;16.02;;;6.70;;
71202;SDS011;58929;47.490;19.090;2023-05-16T14:53:53;11.65;;;5.95;;
71202;SDS011;58929;47.490;19.090;2023-05-16T14:56:22;10.52;;;6.35;;
71202;SDS011;58929;47.490;19.090;2023-05-16T14:58:52;16.23;;;7.50;;
71202;SDS011;58929;47.490;19.090;2023-05-16T15:01:20;15.18;;;7.70;;
71202;SDS011;58929;47.490;19.090;2023-05-16T15:03:50;18.05;;;7.03;;
71202;SDS011;58929;47.490;19.090;2023-05-16T15:06:22;14.10;;;7.43;;
71202;SDS011;58929;47.490;19.090;2023-05-16T15:08:50;23.48;;;13.48;;
71202;SDS011;58929;47.490;19.090;2023-05-16T15:11:18;14.85;;;9.80;;